Time;durP1;ratioP1;P1;durP2;ratioP2;P2;SDS_P1;SDS_P2;PMS_P1;PMS_P2;Temp;Humidity;BMP_temperature;BMP_pressure;BME280_temperature;BME280_humidity;BME280_pressure;Samples;Min_cycle;Max_cycle;Signal;HPM_P1;HPM_P2
2021/08/18 00:00:43;;;;;;;;;;;;;;;21.34;32.56;99489.53;5039434;28;20071;-77
2021/08/18 00:03:09;;;;;;;49.72;18.33;;;;;;;21.25;32.69;99485.16;5055607;28;20390;-79
2021/08/18 00:05:36;;;;;;;60.33;17.85;;;;;;;21.17;32.72;99480.69;5071750;28;20123;-79
2021/08/18 00:08:02;;;;;;;48.92;18.33;;;;;;;21.17;32.87;99488.00;5054935;28;20511;-78
2021/08/18 00:10:29;;;;;;;51.00;17.60;;;;;;;21.12;32.95;99487.72;5055074;28;20044;-77
2021/08/18 00:12:56;;;;;;;51.28;17.92;;;;;;;21.18;33.01;99495.16;5055266;28;20051;-78
2021/08/18 00:15:22;;;;;;;50.58;17.80;;;;;;;21.13;33.15;99492.13;5037809;28;20499;-78
2021/08/18 00:17:48;;;;;;;48.08;17.60;;;;;;;21.09;33.22;99480.78;5054996;28;20082;-77
2021/08/18 00:20:14;;;;;;;42.03;17.15;;;;;;;21.06;33.10;99487.44;5054844;28;20044;-78
2021/08/18 00:22:41;;;;;;;42.42;18.45;;;;;;;21.03;33.26;99492.41;5055000;28;20043;-77
2021/08/18 00:25:08;;;;;;;46.08;18.10;;;;;;;20.98;33.25;99487.50;5038669;28;20044;-78
2021/08/18 00:27:34;;;;;;;44.28;18.50;;;;;;;21.00;33.22;99490.91;5055024;28;20048;-76
2021/08/18 00:30:00;;;;;;;47.55;17.00;;;;;;;20.95;33.40;99487.91;5037987;28;20032;-78
2021/08/18 00:32:26;;;;;;;51.20;17.98;;;;;;;20.95;33.45;99490.63;5054792;28;20048;-76
2021/08/18 00:34:52;;;;;;;51.55;18.38;;;;;;;20.92;33.71;99485.56;5087960;28;20041;-77
2021/08/18 00:37:18;;;;;;;65.30;19.40;;;;;;;20.92;33.63;99491.00;5071051;28;20229;-78
2021/08/18 00:39:44;;;;;;;48.28;16.63;;;;;;;20.88;33.49;99489.69;5038468;28;20135;-78
2021/08/18 00:42:10;;;;;;;46.88;16.98;;;;;;;20.88;33.60;99495.13;5038425;28;20048;-77
2021/08/18 00:44:36;;;;;;;42.63;17.08;;;;;;;20.83;33.50;99498.38;5038541;28;20376;-78
2021/08/18 00:47:04;;;;;;;54.75;17.38;;;;;;;20.77;33.52;99487.41;5054651;28;20045;-77
2021/08/18 00:49:31;;;;;;;57.23;17.43;;;;;;;20.78;34.02;99494.53;5038213;28;20094;-78
2021/08/18 00:51:57;;;;;;;42.22;17.63;;;;;;;20.77;33.97;99499.13;5056767;28;20930;-77
2021/08/18 00:54:23;;;;;;;56.00;18.60;;;;;;;20.72;34.63;99495.25;5075532;28;20040;-78
2021/08/18 00:56:50;;;;;;;52.58;18.73;;;;;;;20.59;34.52;99485.88;5092263;28;20142;-78
2021/08/18 00:59:15;;;;;;;61.00;19.80;;;;;;;20.49;34.71;99479.84;5075182;28;20044;-78
2021/08/18 01:01:42;;;;;;;46.45;18.23;;;;;;;20.54;34.80;99495.63;5075373;28;20082;-76
2021/08/18 01:04:07;;;;;;;50.50;19.10;;;;;;;20.52;35.04;99500.38;5058554;28;20127;-77
2021/08/18 01:06:39;;;;;;;51.75;18.08;;;;;;;20.45;35.13;99499.38;5041732;28;20048;-77
2021/08/18 01:09:10;;;;;;;62.13;18.73;;;;;;;20.46;35.36;99501.94;5042062;28;20045;-77
2021/08/18 01:11:37;;;;;;;48.35;19.38;;;;;;;20.40;35.16;99502.66;5041858;28;20051;-77
2021/08/18 01:14:03;;;;;;;52.20;19.70;;;;;;;20.29;35.37;99497.66;5041348;28;20056;-76
2021/08/18 01:16:35;;;;;;;52.25;18.08;;;;;;;20.26;35.58;99498.84;5058260;28;20526;-78
2021/08/18 01:19:02;;;;;;;56.00;19.65;;;;;;;20.28;35.60;99504.09;5041494;28;20036;-77
2021/08/18 01:21:29;;;;;;;53.55;18.05;;;;;;;20.24;35.84;99509.06;5057838;28;20044;-77
2021/08/18 01:23:55;;;;;;;63.90;22.13;;;;;;;20.28;36.08;99520.41;5057954;28;20407;-79
2021/08/18 01:26:21;;;;;;;56.63;20.08;;;;;;;20.27;35.95;99529.53;5058229;28;20041;-79
2021/08/18 01:28:47;;;;;;;56.33;21.05;;;;;;;20.17;36.15;99510.78;5074915;28;20143;-82
2021/08/18 01:31:13;;;;;;;50.75;19.48;;;;;;;20.22;36.07;99529.25;5024680;28;20135;-82
2021/08/18 01:33:39;;;;;;;63.90;18.58;;;;;;;20.18;36.26;99541.50;5024244;28;20041;-79
2021/08/18 01:36:05;;;;;;;65.95;21.48;;;;;;;20.17;36.54;99542.53;5081002;28;20054;-80
2021/08/18 01:38:31;;;;;;;50.97;19.25;;;;;;;20.19;37.09;99543.19;5056394;28;20096;-76
2021/08/18 01:40:57;;;;;;;50.22;19.33;;;;;;;20.19;37.03;99545.88;5078029;28;20138;-76
2021/08/18 01:43:23;;;;;;;50.17;19.35;;;;;;;20.19;36.81;99543.19;5077711;28;20040;-75
2021/08/18 01:45:50;;;;;;;57.47;18.80;;;;;;;20.20;36.70;99550.28;5044381;28;20359;-76
2021/08/18 01:48:20;;;;;;;49.15;18.02;;;;;;;20.20;36.49;99544.84;5044091;28;20055;-76
2021/08/18 01:50:51;;;;;;;53.70;17.33;;;;;;;20.20;36.31;99551.16;5045058;28;20138;-75
2021/08/18 01:53:19;;;;;;;54.40;16.83;;;;;;;20.21;36.20;99552.00;5060690;28;20040;-76
2021/08/18 01:55:45;;;;;;;45.53;16.50;;;;;;;20.16;36.00;99543.53;5061002;28;20054;-76
2021/08/18 01:58:11;;;;;;;40.33;16.15;;;;;;;20.27;35.88;99562.13;5060855;28;20086;-76
2021/08/18 02:00:37;;;;;;;35.83;15.23;;;;;;;20.27;35.89;99562.13;5077256;28;20071;-76
2021/08/18 02:03:04;;;;;;;49.45;14.90;;;;;;;20.18;35.64;99546.91;5060212;28;20051;-76
2021/08/18 02:05:29;;;;;;;48.45;15.82;;;;;;;20.20;35.70;99556.59;5077392;28;20043;-76
2021/08/18 02:07:55;;;;;;;35.10;13.77;;;;;;;20.20;35.63;99563.84;5077102;28;20036;-77
2021/08/18 02:10:22;;;;;;;35.92;15.27;;;;;;;20.22;35.43;99561.81;5093499;28;20066;-76
2021/08/18 02:12:48;;;;;;;41.13;15.10;;;;;;;20.17;35.36;99558.81;5043738;28;20537;-77
2021/08/18 02:15:22;;;;;;;42.80;13.88;;;;;;;20.28;35.06;99580.97;5026926;28;20064;-77
2021/08/18 02:17:48;;;;;;;43.72;14.48;;;;;;;20.29;35.02;99565.50;5061011;28;20040;-76
2021/08/18 02:20:16;;;;;;;38.63;16.33;;;;;;;20.31;34.90;99579.72;5093524;28;20040;-76
2021/08/18 02:22:42;;;;;;;37.90;15.07;;;;;;;20.30;34.86;99568.03;5077105;28;20067;-79
2021/08/18 02:25:09;;;;;;;36.03;15.02;;;;;;;20.36;34.95;99577.34;5043537;28;20039;-78
2021/08/18 02:27:34;;;;;;;37.47;13.85;;;;;;;20.48;34.82;99580.47;5093089;28;20036;-78
2021/08/18 02:30:00;;;;;;;43.67;15.50;;;;;;;20.48;34.89;99575.06;5059887;28;20498;-78
2021/08/18 02:32:26;;;;;;;44.92;15.77;;;;;;;20.60;35.23;99579.91;5076804;28;20397;-79
2021/08/18 02:34:52;;;;;;;42.28;14.95;;;;;;;20.67;35.09;99587.31;5076680;28;20138;-78
2021/08/18 02:37:18;;;;;;;48.50;15.68;;;;;;;20.71;34.78;99578.63;5059839;28;20463;-79
2021/08/18 02:39:44;;;;;;;34.53;14.38;;;;;;;20.77;35.06;99585.22;5043308;28;20139;-78
2021/08/18 02:42:10;;;;;;;32.15;14.15;;;;;;;20.77;34.65;99579.78;5076293;28;20048;-78
2021/08/18 02:44:36;;;;;;;43.90;14.35;;;;;;;20.79;34.61;99585.88;5059805;28;20521;-79
2021/08/18 02:47:02;;;;;;;50.65;15.80;;;;;;;20.74;34.67;99580.16;5059679;28;20487;-78
2021/08/18 02:49:28;;;;;;;31.90;15.00;;;;;;;20.70;34.64;99578.81;5059725;28;20507;-78
2021/08/18 02:51:54;;;;;;;36.33;14.45;;;;;;;20.78;34.75;99589.63;5076442;28;20047;-77
2021/08/18 02:54:20;;;;;;;35.08;16.05;;;;;;;20.78;34.67;99582.31;5093097;28;20039;-78
2021/08/18 02:56:46;;;;;;;43.22;14.90;;;;;;;20.84;34.73;99586.19;5076087;28;20048;-77
2021/08/18 02:59:12;;;;;;;42.40;14.77;;;;;;;20.86;34.87;99592.25;5076868;28;20036;-77
2021/08/18 03:01:38;;;;;;;39.92;14.80;;;;;;;20.92;34.91;99594.25;5076398;28;20070;-78
2021/08/18 03:04:04;;;;;;;44.70;16.40;;;;;;;20.99;34.89;99594.38;5052452;28;20097;-84
2021/08/18 03:06:30;;;;;;;45.63;15.50;;;;;;;20.96;34.84;99579.28;5042961;28;20044;-79
2021/08/18 03:08:56;;;;;;;52.13;16.17;;;;;;;21.05;34.85;99594.47;5094426;28;20075;-81
2021/08/18 03:11:22;;;;;;;45.95;16.85;;;;;;;21.06;34.75;99579.88;5022845;28;20081;-81
2021/08/18 03:13:48;;;;;;;52.22;17.35;;;;;;;21.23;34.55;99596.00;5074146;28;20056;-79
2021/08/18 03:16:14;;;;;;;72.20;18.48;;;;;;;21.34;34.88;99593.69;5055510;28;20048;-78
2021/08/18 03:18:40;;;;;;;59.80;19.63;;;;;;;21.37;34.60;99587.06;5056626;28;20441;-80
2021/08/18 03:21:06;;;;;;;63.58;19.38;;;;;;;21.55;34.81;99611.16;5040625;28;20131;-81
2021/08/18 03:23:32;;;;;;;61.40;20.55;;;;;;;21.64;34.38;99601.03;5057150;28;20045;-78
2021/08/18 03:25:58;;;;;;;54.65;19.17;;;;;;;21.69;34.31;99601.31;5073385;28;20044;-77
2021/08/18 03:28:24;;;;;;;73.07;20.90;;;;;;;21.81;34.24;99599.78;5055780;28;20104;-79
2021/08/18 03:30:50;;;;;;;68.20;21.10;;;;;;;21.91;34.27;99592.19;5039322;28;20071;-81
2021/08/18 03:33:16;;;;;;;59.25;20.13;;;;;;;22.11;33.98;99599.75;5069652;28;20586;-81
2021/08/18 03:35:42;;;;;;;60.15;21.45;;;;;;;22.22;33.84;99602.00;5038910;28;20135;-80
2021/08/18 03:38:07;;;;;;;61.47;22.02;;;;;;;22.28;33.76;99585.75;5038876;28;20131;-82
2021/08/18 03:40:33;;;;;;;51.42;20.80;;;;;;;22.53;33.35;99593.56;5055180;28;20036;-76
2021/08/18 03:43:01;;;;;;;50.22;21.75;;;;;;;22.73;32.86;99604.66;5072254;28;20194;-78
2021/08/18 03:45:28;;;;;;;61.75;22.20;;;;;;;22.87;32.61;99595.56;5056136;28;20048;-76
2021/08/18 03:47:54;;;;;;;68.43;21.40;;;;;;;23.00;32.39;99595.69;5072218;28;20565;-79
2021/08/18 03:50:20;;;;;;;67.25;21.65;;;;;;;23.15;32.10;99589.31;5055844;28;20052;-80
2021/08/18 03:52:46;;;;;;;46.28;22.20;;;;;;;23.31;32.03;99591.72;5039059;28;20479;-79
2021/08/18 03:55:13;;;;;;;62.05;21.02;;;;;;;23.48;31.64;99595.00;5038266;28;20041;-79
2021/08/18 03:57:39;;;;;;;63.25;21.33;;;;;;;23.65;31.56;99600.97;5055287;28;20062;-80
2021/08/18 04:00:08;;;;;;;63.28;21.98;;;;;;;23.83;31.34;99603.22;5071655;28;20475;-79
2021/08/18 04:02:36;;;;;;;52.72;21.38;;;;;;;23.89;31.17;99589.59;5071983;28;20484;-80
2021/08/18 04:05:03;;;;;;;;;;;;;;;24.12;30.93;99597.47;5088608;28;20113;-79
2021/08/18 04:07:28;;;;;;;46.83;20.45;;;;;;;24.22;30.69;99595.19;5055028;28;19920;-78
2021/08/18 04:09:54;;;;;;;63.38;22.63;;;;;;;24.34;30.52;99589.97;5055344;28;20080;-77
2021/08/18 04:12:20;;;;;;;57.63;21.42;;;;;;;24.49;30.48;99589.84;5071491;28;20612;-78
2021/08/18 04:14:47;;;;;;;60.20;23.17;;;;;;;24.72;30.36;99600.38;5037956;28;20055;-79
2021/08/18 04:17:13;;;;;;;57.25;21.75;;;;;;;24.81;30.04;99588.19;5071622;28;20518;-77
2021/08/18 04:19:39;;;;;;;59.10;21.17;;;;;;;25.03;30.18;99598.94;5071372;28;20049;-79
2021/08/18 04:22:05;;;;;;;47.13;21.38;;;;;;;25.19;29.97;99601.25;5035825;28;20052;-80
2021/08/18 04:24:33;;;;;;;65.18;23.27;;;;;;;25.33;29.88;99592.00;5086666;28;20044;-78
2021/08/18 04:26:58;;;;;;;55.22;19.70;;;;;;;25.40;29.15;99581.06;5088271;28;20499;-79
2021/08/18 04:29:25;;;;;;;49.80;20.58;;;;;;;25.63;28.68;99599.75;5038256;28;20043;-78
2021/08/18 04:31:51;;;;;;;48.55;18.73;;;;;;;25.72;28.25;99590.22;5038473;28;20040;-79
2021/08/18 04:34:17;;;;;;;47.45;17.58;;;;;;;25.85;27.83;99598.44;5038140;28;20406;-77
2021/08/18 04:36:43;;;;;;;52.75;17.10;;;;;;;25.95;27.56;99594.38;5054617;28;20514;-78
2021/08/18 04:39:09;;;;;;;42.60;17.50;;;;;;;26.08;27.38;99597.94;5038070;28;20076;-77
2021/08/18 04:41:35;;;;;;;28.42;15.90;;;;;;;26.17;27.03;99593.03;5071765;28;20071;-78
2021/08/18 04:44:01;;;;;;;46.70;17.48;;;;;;;26.36;26.97;99603.03;5054962;28;20115;-78
2021/08/18 04:46:27;;;;;;;49.72;18.88;;;;;;;26.51;26.88;99604.69;5054843;28;20131;-77
2021/08/18 04:48:53;;;;;;;44.80;16.70;;;;;;;26.67;26.77;99614.28;5054618;28;20440;-78
2021/08/18 04:51:19;;;;;;;42.53;17.13;;;;;;;26.80;26.79;99604.09;5037879;28;20051;-77
2021/08/18 04:53:45;;;;;;;50.13;16.83;;;;;;;26.96;26.81;99610.09;5054449;28;20040;-79
2021/08/18 04:56:12;;;;;;;48.05;17.23;;;;;;;27.12;26.77;99612.31;5037873;28;20131;-80
2021/08/18 04:58:37;;;;;;;41.53;18.10;;;;;;;27.24;26.84;99599.53;5071150;28;20410;-78
2021/08/18 05:01:03;;;;;;;48.83;18.35;;;;;;;27.44;26.86;99614.97;5054441;28;20178;-79
2021/08/18 05:03:29;;;;;;;42.65;18.17;;;;;;;27.56;26.80;99602.19;5070909;28;20138;-78
2021/08/18 05:05:55;;;;;;;48.47;18.38;;;;;;;27.61;26.86;99594.13;5053726;28;20072;-79
2021/08/18 05:08:21;;;;;;;51.42;18.83;;;;;;;27.81;26.77;99616.72;5070889;28;20128;-78
2021/08/18 05:10:47;;;;;;;41.05;18.30;;;;;;;27.86;26.56;99601.47;5053898;28;20075;-80
2021/08/18 05:13:13;;;;;;;44.63;17.85;;;;;;;28.01;26.49;99600.00;5071269;28;20499;-79
2021/08/18 05:15:40;;;;;;;47.90;17.75;;;;;;;28.14;25.71;99607.25;5037797;28;20064;-79
2021/08/18 05:18:06;;;;;;;43.33;18.00;;;;;;;28.22;25.47;99600.63;5054155;28;20045;-79
2021/08/18 05:20:32;;;;;;;37.90;18.45;;;;;;;28.40;25.68;99602.50;5070811;28;20051;-79
2021/08/18 05:22:58;;;;;;;42.38;18.25;;;;;;;28.54;25.45;99599.31;5087915;28;20044;-79
2021/08/18 05:25:24;;;;;;;45.53;16.88;;;;;;;28.71;25.43;99605.03;5054102;28;20052;-80
2021/08/18 05:27:50;;;;;;;35.35;17.02;;;;;;;28.80;25.08;99589.84;5070638;28;20051;-79
2021/08/18 05:30:16;;;;;;;35.60;17.25;;;;;;;29.00;24.56;99605.25;5072081;28;20048;-79
2021/08/18 05:32:42;;;;;;;41.42;17.05;;;;;;;29.07;24.22;99605.94;5072136;28;20067;-79
2021/08/18 05:35:10;;;;;;;33.95;16.67;;;;;;;29.13;24.06;99596.75;5070269;28;20036;-78
2021/08/18 05:37:36;;;;;;;33.93;15.30;;;;;;;29.31;23.71;99606.81;5070699;28;20533;-78
2021/08/18 05:40:03;;;;;;;27.92;16.13;;;;;;;29.40;23.48;99586.09;5074194;28;20279;-78
2021/08/18 05:42:30;;;;;;;30.70;15.80;;;;;;;29.51;23.63;99588.00;5057978;28;20076;-79
2021/08/18 05:44:55;;;;;;;41.60;16.52;;;;;;;29.68;23.25;99590.09;5074145;28;20499;-77
2021/08/18 05:47:21;;;;;;;45.63;17.30;;;;;;;29.84;23.15;99591.25;5074045;28;20048;-80
2021/08/18 05:49:49;;;;;;;48.65;18.83;;;;;;;29.90;23.21;99590.25;5057305;28;20126;-78
2021/08/18 05:52:15;;;;;;;52.75;18.58;;;;;;;29.99;23.12;99583.31;5074309;28;20055;-77
2021/08/18 05:54:41;;;;;;;53.60;18.45;;;;;;;30.13;23.02;99579.19;5057664;28;20064;-79
2021/08/18 05:57:07;;;;;;;55.75;18.23;;;;;;;30.20;22.94;99582.69;5057508;28;20495;-79
2021/08/18 05:59:32;;;;;;;55.97;17.98;;;;;;;30.42;22.45;99584.72;5073822;28;20130;-78
2021/08/18 06:01:58;;;;;;;46.83;17.40;;;;;;;30.43;21.64;99579.00;5090702;28;20105;-78
2021/08/18 06:04:24;;;;;;;39.85;16.50;;;;;;;30.43;21.70;99583.66;5056817;28;20040;-78
2021/08/18 06:06:50;;;;;;;47.67;16.13;;;;;;;30.53;21.71;99581.09;5073926;28;20529;-78
2021/08/18 06:09:16;;;;;;;48.08;16.48;;;;;;;30.75;21.79;99569.38;5073613;28;20040;-80
2021/08/18 06:11:43;;;;;;;33.03;15.63;;;;;;;30.95;21.09;99577.97;5073622;28;20123;-78
2021/08/18 06:14:09;;;;;;;39.13;16.30;;;;;;;31.02;20.67;99569.53;5073668;28;20169;-78
2021/08/18 06:16:35;;;;;;;32.83;15.25;;;;;;;30.90;20.42;99567.69;5057222;28;20094;-78
2021/08/18 06:19:00;;;;;;;31.80;15.45;;;;;;;30.94;20.67;99563.34;5073363;28;20068;-78
2021/08/18 06:21:27;;;;;;;29.48;14.80;;;;;;;31.07;20.61;99558.56;5057449;28;20047;-79
2021/08/18 06:23:57;;;;;;;33.58;15.73;;;;;;;31.28;20.50;99568.03;5073518;28;20052;-79
2021/08/18 06:26:23;;;;;;;30.05;15.00;;;;;;;31.31;20.63;99578.59;5056782;28;20106;-79
2021/08/18 06:28:49;;;;;;;32.70;15.57;;;;;;;31.35;20.48;99568.72;5073281;28;20056;-80
2021/08/18 06:31:15;;;;;;;39.80;16.60;;;;;;;31.42;20.40;99569.38;5090096;28;20036;-80
2021/08/18 06:33:41;;;;;;;41.35;16.27;;;;;;;31.39;20.26;99567.94;5056730;28;20057;-79
2021/08/18 06:36:06;;;;;;;39.53;15.32;;;;;;;31.37;20.36;99572.06;5073375;28;20055;-78
2021/08/18 06:38:32;;;;;;;33.40;15.45;;;;;;;31.03;20.13;99561.03;5072995;28;20044;-78
2021/08/18 06:40:58;;;;;;;34.33;15.02;;;;;;;31.26;20.11;99579.34;5073015;28;20130;-79
2021/08/18 06:43:24;;;;;;;38.15;15.68;;;;;;;31.58;19.97;99560.22;5056409;28;20470;-78
2021/08/18 06:45:50;;;;;;;31.95;14.65;;;;;;;32.03;19.69;99559.16;5039631;28;20051;-79
2021/08/18 06:48:16;;;;;;;41.03;15.40;;;;;;;32.29;19.58;99562.22;5072990;28;20048;-79
2021/08/18 06:50:42;;;;;;;29.25;15.52;;;;;;;32.44;19.00;99562.41;5073711;28;20523;-79
2021/08/18 06:53:08;;;;;;;32.22;15.23;;;;;;;32.63;19.09;99563.72;5056242;28;20123;-79
2021/08/18 06:55:35;;;;;;;29.75;15.18;;;;;;;32.75;18.65;99548.88;5089328;28;20088;-78
2021/08/18 06:58:01;;;;;;;30.80;15.80;;;;;;;32.92;18.74;99552.34;5055731;28;20040;-78
2021/08/18 07:00:27;;;;;;;27.60;15.43;;;;;;;33.18;18.60;99545.09;5072639;28;20098;-78
2021/08/18 07:02:53;;;;;;;34.92;15.75;;;;;;;33.29;18.21;99526.63;5073482;28;20048;-78
2021/08/18 07:05:19;;;;;;;30.45;15.27;;;;;;;33.54;18.41;99539.81;5072697;28;20121;-78
2021/08/18 07:07:45;;;;;;;36.88;16.40;;;;;;;33.59;18.03;99532.38;5055485;28;20517;-79
2021/08/18 07:10:12;;;;;;;29.42;15.50;;;;;;;33.84;18.40;99539.13;5055632;28;20044;-79
2021/08/18 07:12:38;;;;;;;27.45;14.90;;;;;;;34.02;18.44;99535.88;5055944;28;20040;-79
2021/08/18 07:15:05;;;;;;;29.80;15.15;;;;;;;34.04;17.77;99532.84;5022307;28;20117;-79
2021/08/18 07:17:30;;;;;;;27.77;14.05;;;;;;;34.07;17.64;99535.06;5039705;28;20055;-79
2021/08/18 07:19:56;;;;;;;26.15;15.35;;;;;;;34.07;17.43;99533.13;5055763;28;20084;-81
2021/08/18 07:22:22;;;;;;;21.55;13.65;;;;;;;34.17;17.59;99534.28;5072755;28;20045;-79
2021/08/18 07:24:48;;;;;;;31.42;13.75;;;;;;;34.38;17.13;99533.22;5039287;28;20070;-78
2021/08/18 07:27:14;;;;;;;33.38;14.60;;;;;;;34.50;17.25;99527.44;5055450;28;20057;-78
2021/08/18 07:29:40;;;;;;;36.67;14.23;;;;;;;34.62;16.84;99533.53;5072138;28;20491;-78
2021/08/18 07:32:06;;;;;;;28.65;14.07;;;;;;;34.50;16.58;99519.09;5072325;28;20408;-78
2021/08/18 07:34:33;;;;;;;29.08;14.07;;;;;;;34.50;16.61;99519.94;5071789;28;20044;-79
2021/08/18 07:37:00;;;;;;;30.23;14.88;;;;;;;34.60;16.66;99519.09;5088572;28;20131;-78
2021/08/18 07:39:26;;;;;;;27.67;13.45;;;;;;;34.90;16.73;99529.38;5071953;28;20043;-79
2021/08/18 07:41:52;;;;;;;29.95;14.38;;;;;;;35.02;15.70;99527.19;5055304;28;20135;-79
2021/08/18 07:44:18;;;;;;;28.90;13.05;;;;;;;34.27;16.16;99506.56;5054936;28;20040;-80
2021/08/18 07:46:46;;;;;;;43.13;14.25;;;;;;;33.81;16.57;99510.00;5071894;28;20234;-79
2021/08/18 07:49:12;;;;;;;;;;;;;;;34.07;16.83;99516.47;5055643;28;20036;-78
2021/08/18 07:51:38;;;;;;;25.85;13.48;;;;;;;34.50;16.39;99508.00;5088637;28;19985;-77
2021/08/18 07:54:04;;;;;;;22.80;13.75;;;;;;;34.78;16.34;99515.78;5054992;28;20198;-79
2021/08/18 07:56:32;;;;;;;22.35;12.80;;;;;;;34.65;15.83;99498.84;5054915;28;20044;-79
2021/08/18 07:58:59;;;;;;;25.90;14.23;;;;;;;34.87;15.62;99496.63;5055409;28;20123;-79
2021/08/18 08:01:25;;;;;;;25.50;12.68;;;;;;;35.31;15.69;99501.56;5071389;28;20138;-79
2021/08/18 08:03:51;;;;;;;28.48;12.93;;;;;;;35.50;14.81;99499.88;5072171;28;20131;-80
2021/08/18 08:06:16;;;;;;;29.75;12.98;;;;;;;35.63;14.78;99503.19;5055336;28;20072;-78
2021/08/18 08:08:42;;;;;;;42.17;13.40;;;;;;;35.77;14.87;99504.25;5054943;28;20044;-77
2021/08/18 08:11:08;;;;;;;26.05;13.07;;;;;;;35.95;14.83;99491.59;5088426;28;20092;-79
2021/08/18 08:13:34;;;;;;;29.35;12.50;;;;;;;36.01;14.43;99486.91;5071473;28;20044;-78
2021/08/18 08:16:00;;;;;;;25.65;11.43;;;;;;;36.15;13.54;99487.94;5071310;28;20052;-78
2021/08/18 08:18:26;;;;;;;27.40;11.38;;;;;;;36.31;13.76;99469.16;5072784;28;20135;-79
2021/08/18 08:20:52;;;;;;;16.00;10.73;;;;;;;36.53;13.37;99480.72;5072290;28;20159;-78
2021/08/18 08:23:17;;;;;;;22.40;10.27;;;;;;;36.57;13.06;99461.47;5054616;28;20044;-78
2021/08/18 08:25:43;;;;;;;20.48;9.98;;;;;;;36.69;12.91;99471.09;5088126;28;20453;-78
2021/08/18 08:28:09;;;;;;;23.48;10.38;;;;;;;36.78;12.98;99457.38;5072931;28;20145;-78
2021/08/18 08:30:35;;;;;;;21.98;11.52;;;;;;;37.01;13.02;99472.50;5071550;28;20576;-78
2021/08/18 08:33:02;;;;;;;27.40;10.60;;;;;;;36.90;13.24;99451.44;5071060;28;20135;-79
2021/08/18 08:35:29;;;;;;;24.13;10.93;;;;;;;37.16;12.66;99463.13;5054833;28;20449;-78
2021/08/18 08:37:55;;;;;;;22.17;10.45;;;;;;;37.33;12.77;99462.69;5071236;28;20044;-77
2021/08/18 08:40:21;;;;;;;17.45;10.80;;;;;;;37.46;12.88;99470.34;5037694;28;20036;-78
2021/08/18 08:42:47;;;;;;;19.40;10.57;;;;;;;37.54;12.80;99458.56;5070818;28;20071;-78
2021/08/18 08:45:13;;;;;;;26.65;11.20;;;;;;;37.70;12.79;99456.41;5054326;28;20036;-77
2021/08/18 08:47:39;;;;;;;23.35;10.65;;;;;;;37.82;12.84;99464.31;5054150;28;20489;-78
2021/08/18 08:50:07;;;;;;;30.73;10.48;;;;;;;37.90;12.39;99458.09;5054347;28;20549;-80
2021/08/18 08:52:33;;;;;;;18.55;9.50;;;;;;;37.84;12.15;99446.16;5070775;28;20052;-78
2021/08/18 08:55:00;;;;;;;18.75;9.55;;;;;;;37.83;11.65;99454.81;5071076;28;20076;-77
2021/08/18 08:57:26;;;;;;;16.88;9.15;;;;;;;37.88;11.97;99457.59;5070910;28;20487;-77
2021/08/18 08:59:51;;;;;;;17.85;9.35;;;;;;;37.95;12.21;99443.25;5054643;28;20048;-78
2021/08/18 09:02:19;;;;;;;14.82;9.65;;;;;;;38.04;12.24;99449.81;5088110;28;20032;-77
2021/08/18 09:04:46;;;;;;;18.85;9.80;;;;;;;37.99;11.92;99441.50;5070988;28;20060;-78
2021/08/18 09:07:17;;;;;;;16.95;8.82;;;;;;;37.73;11.88;99450.22;5054252;28;20135;-78
2021/08/18 09:09:53;;;;;;;20.90;9.77;;;;;;;37.84;12.43;99446.16;5070949;28;20048;-78
2021/08/18 09:12:32;;;;;;;19.65;8.55;;;;;;;38.22;12.10;99449.00;5087509;28;20048;-78
2021/08/18 09:15:21;;;;;;;20.08;9.23;;;;;;;38.44;11.52;99437.22;5089502;28;20147;-78
2021/08/18 09:17:50;;;;;;;17.85;8.95;;;;;;;38.72;11.39;99443.69;5058133;28;20052;-79
2021/08/18 09:20:18;;;;;;;19.92;8.95;;;;;;;38.65;11.38;99437.69;5058181;28;20055;-78
2021/08/18 09:22:45;;;;;;;;;;;;;;;38.63;11.94;99431.59;5058628;28;20071;-77
2021/08/18 09:25:16;;;;;;;15.35;9.82;;;;;;;38.92;11.45;99427.72;5075346;28;19954;-79
2021/08/18 09:27:43;;;;;;;18.80;8.77;;;;;;;39.11;11.48;99428.47;5074874;28;20048;-78
2021/08/18 09:30:18;;;;;;;17.45;8.32;;;;;;;39.17;10.94;99427.22;5074309;28;20044;-78
2021/08/18 09:32:44;;;;;;;19.00;8.00;;;;;;;39.22;11.02;99427.13;5057937;28;20471;-78
2021/08/18 09:35:14;;;;;;;15.73;7.80;;;;;;;38.96;10.55;99426.78;5075450;28;20049;-78
2021/08/18 09:37:42;;;;;;;15.10;8.48;;;;;;;39.15;11.75;99418.31;5041429;28;20126;-77
2021/08/18 09:40:15;;;;;;;23.63;8.20;;;;;;;39.31;11.04;99422.50;5058126;28;20040;-78
2021/08/18 09:42:41;;;;;;;17.73;8.52;;;;;;;39.09;11.18;99414.81;5057864;28;20048;-77
2021/08/18 09:45:11;;;;;;;15.98;8.60;;;;;;;38.84;11.46;99413.31;5075439;28;20045;-78
2021/08/18 09:48:18;;;;;;;17.63;8.10;;;;;;;39.37;11.58;99414.00;5057544;28;20574;-78
2021/08/18 09:50:57;;;;;;;16.90;9.23;;;;;;;39.57;11.14;99419.19;5075525;28;20147;-77
2021/08/18 09:53:25;;;;;;;22.13;8.95;;;;;;;39.52;11.01;99417.28;5074472;28;20053;-78
2021/08/18 09:56:05;;;;;;;20.27;8.60;;;;;;;40.06;11.09;99411.94;5057477;28;20036;-79
2021/08/18 09:58:37;;;;;;;15.50;7.88;;;;;;;40.23;10.68;99400.88;5058014;28;20070;-78
2021/08/18 10:01:11;;;;;;;15.65;8.48;;;;;;;40.53;10.41;99406.84;5075458;28;20052;-78
2021/08/18 10:03:42;;;;;;;16.23;7.80;;;;;;;40.69;10.20;99399.72;5074538;28;20185;-77
2021/08/18 10:06:09;;;;;;;18.77;8.27;;;;;;;40.69;10.21;99405.31;5074789;28;20037;-78
2021/08/18 10:08:35;;;;;;;;;;;;;;;40.94;10.07;99400.19;5058457;28;20067;-78
2021/08/18 10:11:01;;;;;;;12.30;7.03;;;;;;;41.33;9.61;99401.31;5073987;28;19927;-78
2021/08/18 10:13:28;;;;;;;11.68;7.03;;;;;;;41.17;9.35;99403.75;5075070;28;20044;-77
2021/08/18 10:15:54;;;;;;;11.57;7.00;;;;;;;41.27;9.68;99394.25;5040394;28;20407;-77
2021/08/18 10:18:32;;;;;;;15.90;7.43;;;;;;;41.79;9.30;99394.34;5056861;28;20048;-78
2021/08/18 10:21:12;;;;;;;19.23;7.28;;;;;;;42.09;9.13;99384.97;5073945;28;20062;-77
2021/08/18 10:23:47;;;;;;;16.63;7.95;;;;;;;42.45;8.73;99392.22;5040282;28;20133;-77
2021/08/18 10:26:46;;;;;;;15.93;6.85;;;;;;;42.68;8.54;99393.66;5056667;28;20418;-77
2021/08/18 10:29:16;;;;;;;15.07;6.90;;;;;;;42.49;8.18;99390.38;5040580;28;20048;-77
2021/08/18 10:31:42;;;;;;;13.88;7.10;;;;;;;42.12;8.54;99389.91;5057126;28;20398;-78
2021/08/18 10:34:32;;;;;;;20.15;7.25;;;;;;;42.48;8.64;99388.75;5073668;28;20127;-77
2021/08/18 10:37:01;;;;;;;18.70;7.00;;;;;;;42.98;9.03;99385.28;5068051;28;20098;-78
2021/08/18 10:39:34;;;;;;;12.43;6.38;;;;;;;43.37;8.08;99391.72;5056406;28;20135;-77
2021/08/18 10:42:11;;;;;;;10.30;6.22;;;;;;;43.16;8.17;99381.25;5073294;28;20040;-77
2021/08/18 10:44:46;;;;;;;11.77;5.97;;;;;;;43.51;7.89;99378.28;5056583;28;20144;-76
2021/08/18 10:47:34;;;;;;;18.30;6.32;;;;;;;43.85;7.76;99376.34;5073120;28;20044;-78
2021/08/18 10:50:13;;;;;;;18.70;5.93;;;;;;;43.88;7.64;99373.72;5056161;28;20041;-77
2021/08/18 10:52:42;;;;;;;18.35;6.25;;;;;;;43.89;7.37;99382.97;5072954;28;20098;-78
2021/08/18 10:55:12;;;;;;;12.38;5.95;;;;;;;43.76;7.84;99367.16;5073978;28;20040;-78
2021/08/18 10:57:47;;;;;;;11.35;6.55;;;;;;;44.11;7.86;99373.34;5039384;28;20067;-80
2021/08/18 11:00:26;;;;;;;10.55;6.38;;;;;;;43.84;6.86;99369.91;5072490;28;20577;-78
2021/08/18 11:03:02;;;;;;;14.90;6.80;;;;;;;44.01;7.49;99368.97;5055951;28;20032;-77
2021/08/18 11:05:42;;;;;;;11.23;6.00;;;;;;;44.53;7.62;99354.38;5089379;28;20140;-76
2021/08/18 11:08:12;;;;;;;24.67;6.75;;;;;;;45.11;7.14;99359.19;5072734;28;20110;-77
2021/08/18 11:10:54;;;;;;;15.60;6.38;;;;;;;45.31;7.01;99355.41;5072514;28;20063;-78
2021/08/18 11:13:42;;;;;;;11.30;6.55;;;;;;;45.42;7.16;99359.38;5056001;28;20044;-77
2021/08/18 11:16:31;;;;;;;19.38;6.60;;;;;;;45.76;7.04;99351.56;5073876;28;20048;-78
2021/08/18 11:18:59;;;;;;;15.32;6.90;;;;;;;46.01;7.26;99353.16;5050750;28;20055;-78
2021/08/18 11:21:35;;;;;;;12.93;6.57;;;;;;;46.14;6.61;99347.44;5073208;28;20048;-78
2021/08/18 11:24:02;;;;;;;10.80;6.68;;;;;;;46.29;6.97;99343.88;5072376;28;20047;-78